Главная страница
METAR-TAF:

METAR-TAF

Аэропорты :

Хальмстад, Швеция

широта: 56-41N, долгота: 012-50E, высота над уровнем моря: 30 м

Текущие метеонаблюдения

Эта сводка был подготовлена 33 минут назад, в 10:20 UTC
Ветер 9 Узел от западный-юго-западный
Температура 12°C
Влажность 82%
Давление 1011 hPa
Видимость 10 км и более

METAR: ESMT 251020Z AUTO 25009KT 9999 OVC011/// 12/09 Q1011

Время: 12:53 (10:53 UTC)

Прогноз

Эта сводка был подготовлена 1 час и 26 минут назад, в 09:27 UTC
Прогноз действительный с 25-го 10 UTC до 25-го 15 UTC
Ветер 12 Узел от западный
Видимость 10 км и более
Рассеянная облачность на высоте 2000 фута
временами
С 25-го 10 UTC до 25-го 12 UTC
Рассеянная облачность на высоте 1400 фута

TAF: ESMT 250927Z 2510/2515 27012KT 9999 BKN020 TEMPO 2510/2512 BKN014

Метеонаблюдения и прогнозы для более 4000 аэропортов (сводки METAR и TAF).

Имеющиеся станции представлены на карте желтыми и красными точками.

Чтобы увидеть название станции, наведите на нее мышь.

Затем щелкните, чтобы увидеть метеонаблюдения и метеопрогнозы.

Управление картой: чтобы увеличить масштаб, щелкните зеленые кнопки с черным крестиком; чтобы уменьшить масштаб, щелкните зеленую кнопку с тире; для просмотра соседних карт щелкайте зеленые стрелки.


METAR-TAF: